createdAt,value
2022-07-31T00:02:09.123Z,100.00
2022-07-31T00:09:54.127Z,100.00
2022-07-31T00:12:22.592Z,100.00
2022-07-31T00:14:49.998Z,100.00
2022-07-31T00:17:17.427Z,100.00
2022-07-31T00:19:44.989Z,100.00
2022-07-31T00:22:12.982Z,100.00
2022-07-31T00:24:41.509Z,100.00
2022-07-31T00:32:12.891Z,100.00
2022-07-31T00:34:40.638Z,100.00
2022-07-31T00:37:08.114Z,100.00
2022-07-31T00:39:36.404Z,100.00
2022-07-31T00:42:05.172Z,100.00
2022-07-31T00:44:32.711Z,100.00
2022-07-31T00:47:01.974Z,100.00
2022-07-31T00:52:54.962Z,100.00
2022-07-31T00:55:22.730Z,100.00
2022-07-31T00:57:50.497Z,100.00
2022-07-31T01:00:18.383Z,100.00
2022-07-31T01:02:46.513Z,100.00
2022-07-31T01:05:14.787Z,100.00
2022-07-31T01:07:42.222Z,100.00
2022-07-31T01:13:33.341Z,100.00
2022-07-31T01:16:03.390Z,100.00
2022-07-31T01:18:34.529Z,100.00
2022-07-31T01:21:07.173Z,100.00
2022-07-31T01:24:09.960Z,100.00
2022-07-31T01:27:04.427Z,100.00
2022-07-31T01:34:40.170Z,100.00
2022-07-31T01:37:14.402Z,100.00
2022-07-31T01:39:50.770Z,100.00
2022-07-31T01:42:21.367Z,100.00
2022-07-31T01:44:54.759Z,100.00
2022-07-31T01:47:27.186Z,100.00
2022-07-31T01:49:58.854Z,100.00
2022-07-31T01:56:49.860Z,100.00
2022-07-31T01:59:22.800Z,100.00
2022-07-31T02:02:11.855Z,100.00
2022-07-31T02:04:40.027Z,100.00
2022-07-31T02:07:08.026Z,100.00
2022-07-31T02:09:37.748Z,100.00
2022-07-31T02:15:32.176Z,100.00
2022-07-31T02:18:01.446Z,100.00
2022-07-31T02:20:36.599Z,100.00
2022-07-31T02:23:04.299Z,100.00
2022-07-31T02:25:34.673Z,100.00
2022-07-31T02:28:08.539Z,100.00
2022-07-31T02:30:40.749Z,100.00
2022-07-31T02:38:23.745Z,100.00
2022-07-31T02:40:59.174Z,100.00
2022-07-31T02:43:32.262Z,100.00
2022-07-31T02:46:06.952Z,100.00
2022-07-31T02:48:34.833Z,100.00
2022-07-31T02:51:06.680Z,100.00
2022-07-31T02:53:37.026Z,100.00
2022-07-31T03:01:10.952Z,100.00
2022-07-31T03:03:38.958Z,100.00
2022-07-31T03:06:06.663Z,100.00
2022-07-31T03:08:35.536Z,100.00
2022-07-31T03:11:06.869Z,100.00
2022-07-31T03:13:36.670Z,100.00
2022-07-31T03:16:06.991Z,100.00
2022-07-31T03:23:39.116Z,100.00
2022-07-31T03:26:11.145Z,100.00
2022-07-31T03:28:39.664Z,100.00
2022-07-31T03:31:07.758Z,100.00
2022-07-31T03:33:36.616Z,100.00
2022-07-31T03:36:05.028Z,100.00
2022-07-31T03:38:38.935Z,100.00
2022-07-31T03:44:05.086Z,100.00
2022-07-31T03:46:32.705Z,100.00
2022-07-31T03:49:01.361Z,100.00
2022-07-31T03:51:29.563Z,100.00
2022-07-31T03:53:57.082Z,100.00
2022-07-31T03:56:46.493Z,100.00
2022-07-31T03:59:17.038Z,100.00
2022-07-31T04:06:53.178Z,100.00
2022-07-31T04:09:21.500Z,100.00
2022-07-31T04:11:49.933Z,100.00
2022-07-31T04:14:17.555Z,100.00
2022-07-31T04:16:46.273Z,100.00
2022-07-31T04:19:14.214Z,100.00
2022-07-31T04:21:41.752Z,100.00
2022-07-31T04:26:56.585Z,100.00
2022-07-31T04:29:29.885Z,100.00
2022-07-31T04:31:57.722Z,100.00
2022-07-31T04:34:32.579Z,100.00
2022-07-31T04:37:00.221Z,100.00
2022-07-31T04:39:27.759Z,100.00
2022-07-31T04:41:57.496Z,100.00
2022-07-31T04:49:33.074Z,100.00
2022-07-31T04:52:02.601Z,100.00
2022-07-31T04:54:30.419Z,100.00
2022-07-31T04:56:59.750Z,100.00
2022-07-31T04:59:58.585Z,100.00
2022-07-31T05:02:15.305Z,100.00
2022-07-31T05:04:43.663Z,100.00
2022-07-31T05:12:16.264Z,100.00
2022-07-31T05:14:44.193Z,100.00
2022-07-31T05:17:11.914Z,100.00
2022-07-31T05:19:53.130Z,100.00
2022-07-31T05:22:46.808Z,100.00
2022-07-31T05:25:43.790Z,100.00
2022-07-31T05:33:11.265Z,100.00
2022-07-31T05:35:39.260Z,100.00
2022-07-31T05:38:11.805Z,100.00
2022-07-31T05:41:05.584Z,100.00
2022-07-31T05:43:43.713Z,100.00
2022-07-31T05:46:16.715Z,100.00
2022-07-31T05:51:22.870Z,100.00
2022-07-31T05:53:50.568Z,100.00
2022-07-31T05:56:36.883Z,100.00
2022-07-31T05:59:04.721Z,100.00
2022-07-31T06:01:32.473Z,100.00
2022-07-31T06:04:00.211Z,100.00
2022-07-31T06:06:35.207Z,100.00
2022-07-31T06:14:12.626Z,100.00
2022-07-31T06:17:10.383Z,100.00
2022-07-31T06:19:39.618Z,100.00
2022-07-31T06:22:07.736Z,100.00
2022-07-31T06:24:36.923Z,100.00
2022-07-31T06:27:06.189Z,100.00
2022-07-31T06:29:40.129Z,100.00
2022-07-31T06:36:53.428Z,100.00
2022-07-31T06:39:23.030Z,100.00
2022-07-31T06:42:26.788Z,100.00
2022-07-31T06:45:07.535Z,100.00
2022-07-31T06:47:53.559Z,100.00
2022-07-31T06:50:32.526Z,100.00
2022-07-31T06:56:10.872Z,100.00
2022-07-31T06:58:38.549Z,100.00
2022-07-31T07:01:06.168Z,100.00
2022-07-31T07:03:34.631Z,100.00
2022-07-31T07:06:02.994Z,100.00
2022-07-31T07:08:30.577Z,100.00
2022-07-31T07:10:58.393Z,100.00
2022-07-31T07:18:34.664Z,100.00
2022-07-31T07:21:04.682Z,100.00
2022-07-31T07:23:35.707Z,100.00
2022-07-31T07:26:19.533Z,100.00
2022-07-31T07:28:47.647Z,100.00
2022-07-31T07:31:15.412Z,100.00
2022-07-31T07:33:43.963Z,100.00
2022-07-31T07:41:14.997Z,100.00
2022-07-31T07:43:51.487Z,100.00
2022-07-31T07:46:20.101Z,100.00
2022-07-31T07:48:52.353Z,100.00
2022-07-31T07:51:33.352Z,100.00
2022-07-31T07:54:12.374Z,100.00
2022-07-31T08:03:48.262Z,100.00
2022-07-31T08:06:15.049Z,100.00
2022-07-31T08:08:42.694Z,100.00
2022-07-31T08:11:10.410Z,100.00
2022-07-31T08:14:05.762Z,100.00
2022-07-31T08:17:05.811Z,100.00
2022-07-31T08:24:38.117Z,100.00
2022-07-31T08:27:24.183Z,100.00
2022-07-31T08:30:09.217Z,100.00
2022-07-31T08:32:38.041Z,100.00
2022-07-31T08:35:32.139Z,100.00
2022-07-31T08:38:03.714Z,100.00
2022-07-31T08:45:40.200Z,100.00
2022-07-31T08:48:28.164Z,100.00
2022-07-31T08:50:56.097Z,100.00
2022-07-31T08:53:44.278Z,100.00
2022-07-31T08:56:17.293Z,100.00
2022-07-31T08:58:45.396Z,100.00
2022-07-31T09:03:51.207Z,100.00
2022-07-31T09:06:18.919Z,100.00
2022-07-31T09:08:46.876Z,100.00
2022-07-31T09:11:15.137Z,100.00
2022-07-31T09:14:02.055Z,100.00
2022-07-31T09:16:49.763Z,100.00
2022-07-31T09:19:52.650Z,100.00
2022-07-31T09:25:11.354Z,100.00
2022-07-31T09:27:39.111Z,100.00
2022-07-31T09:30:08.674Z,100.00
2022-07-31T09:32:56.811Z,100.00
2022-07-31T09:35:48.510Z,100.00
2022-07-31T09:38:16.709Z,100.00
2022-07-31T09:46:39.975Z,100.00
2022-07-31T09:49:07.847Z,100.00
2022-07-31T09:51:39.560Z,100.00
2022-07-31T09:54:08.824Z,100.00
2022-07-31T09:57:12.141Z,100.00
2022-07-31T09:59:55.984Z,100.00
2022-07-31T10:05:35.113Z,100.00
2022-07-31T10:08:05.546Z,100.00
2022-07-31T10:11:16.626Z,100.00
2022-07-31T10:13:56.589Z,100.00
2022-07-31T10:16:27.926Z,100.00
2022-07-31T10:19:19.924Z,100.00
2022-07-31T10:26:50.733Z,100.00
2022-07-31T10:29:17.769Z,100.00
2022-07-31T10:31:47.109Z,100.00
2022-07-31T10:34:15.492Z,100.00
2022-07-31T10:37:11.207Z,100.00
2022-07-31T10:40:08.031Z,100.00
2022-07-31T10:47:56.277Z,100.00
2022-07-31T10:50:44.685Z,100.00
2022-07-31T10:53:34.624Z,100.00
2022-07-31T10:56:21.912Z,100.00
2022-07-31T10:59:15.494Z,100.00
2022-07-31T11:01:58.996Z,100.00
2022-07-31T11:07:43.059Z,100.00
2022-07-31T11:10:36.847Z,100.00
2022-07-31T11:13:33.794Z,100.00
2022-07-31T11:16:22.782Z,100.00
2022-07-31T11:19:09.531Z,100.00
2022-07-31T11:21:39.971Z,100.00
2022-07-31T11:30:01.550Z,100.00
2022-07-31T11:32:17.767Z,100.00
2022-07-31T11:34:54.705Z,99.18
2022-07-31T11:37:24.359Z,98.69
2022-07-31T11:39:53.965Z,100.00
2022-07-31T11:42:26.530Z,99.31
2022-07-31T11:50:02.470Z,100.00
2022-07-31T11:52:37.247Z,100.00
2022-07-31T11:55:09.452Z,100.00
2022-07-31T11:57:51.788Z,99.61
2022-07-31T12:00:27.090Z,100.00
2022-07-31T12:02:58.188Z,100.00
2022-07-31T12:08:22.709Z,97.11
2022-07-31T12:10:53.068Z,95.10
2022-07-31T12:13:21.802Z,94.39
2022-07-31T12:15:57.261Z,96.47
2022-07-31T12:18:26.477Z,97.04
2022-07-31T12:20:56.196Z,97.45
2022-07-31T12:27:04.169Z,97.93
2022-07-31T12:29:33.478Z,94.11
2022-07-31T12:32:01.549Z,90.72
2022-07-31T12:34:30.369Z,88.46
2022-07-31T12:36:59.744Z,85.09
2022-07-31T12:39:53.827Z,85.34
2022-07-31T12:42:30.603Z,85.58
2022-07-31T12:49:52.171Z,79.90
2022-07-31T12:52:21.211Z,82.83
2022-07-31T12:54:48.880Z,81.71
2022-07-31T12:57:16.856Z,80.06
2022-07-31T12:59:44.442Z,78.52
2022-07-31T13:02:12.365Z,79.81
2022-07-31T13:04:40.083Z,79.83
2022-07-31T13:12:09.103Z,79.79
2022-07-31T13:14:36.814Z,79.10
2022-07-31T13:17:05.392Z,77.92
2022-07-31T13:19:33.406Z,79.50
2022-07-31T13:22:01.204Z,78.44
2022-07-31T13:24:29.158Z,78.87
2022-07-31T13:26:58.740Z,76.56
2022-07-31T13:32:04.172Z,77.70
2022-07-31T13:34:31.740Z,75.39
2022-07-31T13:36:59.496Z,74.96
2022-07-31T13:39:27.154Z,72.96
2022-07-31T13:41:54.856Z,72.29
2022-07-31T13:44:22.529Z,75.18
2022-07-31T13:46:50.396Z,73.48
2022-07-31T13:53:45.935Z,74.17
2022-07-31T13:56:13.561Z,73.98
2022-07-31T13:59:01.130Z,73.69
2022-07-31T14:02:03.780Z,78.03
2022-07-31T14:04:19.195Z,79.76
2022-07-31T14:06:51.755Z,80.45
2022-07-31T14:15:10.362Z,84.96
2022-07-31T14:17:38.014Z,85.92
2022-07-31T14:20:06.837Z,87.95
2022-07-31T14:22:34.600Z,89.20
2022-07-31T14:25:02.362Z,87.75
2022-07-31T14:27:30.723Z,87.91
2022-07-31T14:29:59.324Z,86.99
2022-07-31T14:35:08.294Z,82.62
2022-07-31T14:37:36.909Z,81.74
2022-07-31T14:40:06.006Z,81.36
2022-07-31T14:42:33.911Z,82.86
2022-07-31T14:45:02.984Z,81.32
2022-07-31T14:47:32.810Z,82.32
2022-07-31T14:50:07.192Z,84.35
2022-07-31T14:57:19.946Z,89.07
2022-07-31T14:59:49.980Z,90.15
2022-07-31T15:02:22.128Z,92.51
2022-07-31T15:04:50.161Z,91.68
2022-07-31T15:07:35.328Z,92.71
2022-07-31T15:10:06.745Z,93.88
2022-07-31T15:12:35.224Z,94.60
2022-07-31T15:20:10.283Z,94.65
2022-07-31T15:22:38.081Z,95.61
2022-07-31T15:25:06.725Z,95.41
2022-07-31T15:27:34.366Z,96.03
2022-07-31T15:30:06.752Z,93.86
2022-07-31T15:32:36.639Z,94.06
2022-07-31T15:35:06.469Z,94.18
2022-07-31T15:40:14.021Z,97.08
2022-07-31T15:42:43.127Z,97.92
2022-07-31T15:45:13.386Z,97.36
2022-07-31T15:47:42.469Z,97.27
2022-07-31T15:50:12.048Z,95.45
2022-07-31T15:52:39.803Z,95.75
2022-07-31T15:55:09.092Z,95.53
2022-07-31T16:02:45.495Z,95.58
2022-07-31T16:05:21.431Z,95.44
2022-07-31T16:08:33.096Z,94.25
2022-07-31T16:10:54.287Z,95.22
2022-07-31T16:13:23.472Z,95.63
2022-07-31T16:15:51.350Z,95.06
2022-07-31T16:21:11.144Z,94.96
2022-07-31T16:23:38.766Z,95.49
2022-07-31T16:26:07.280Z,96.27
2022-07-31T16:28:35.083Z,97.14
2022-07-31T16:31:03.102Z,96.60
2022-07-31T16:33:30.685Z,95.93
2022-07-31T16:35:58.341Z,96.21
2022-07-31T16:43:49.828Z,99.56
2022-07-31T16:46:17.046Z,99.32
2022-07-31T16:48:44.784Z,99.97
2022-07-31T16:51:12.494Z,98.64
2022-07-31T16:54:14.499Z,99.19
2022-07-31T16:56:27.835Z,98.87
2022-07-31T17:01:57.185Z,98.40
2022-07-31T17:04:28.702Z,99.36
2022-07-31T17:06:56.526Z,98.94
2022-07-31T17:09:24.338Z,99.20
2022-07-31T17:11:55.000Z,99.03
2022-07-31T17:14:25.177Z,99.32
2022-07-31T17:16:55.478Z,99.41
2022-07-31T17:24:26.526Z,100.00
2022-07-31T17:26:54.751Z,99.96
2022-07-31T17:29:22.437Z,99.90
2022-07-31T17:31:50.093Z,100.00
2022-07-31T17:34:17.734Z,100.00
2022-07-31T17:36:45.395Z,100.00
2022-07-31T17:39:12.981Z,100.00
2022-07-31T17:46:48.008Z,100.00
2022-07-31T17:49:19.637Z,100.00
2022-07-31T17:51:57.656Z,100.00
2022-07-31T17:54:29.694Z,100.00
2022-07-31T17:56:57.252Z,100.00
2022-07-31T17:59:25.646Z,100.00
2022-07-31T18:01:59.016Z,100.00
2022-07-31T18:08:50.301Z,100.00
2022-07-31T18:11:19.585Z,100.00
2022-07-31T18:13:47.935Z,100.00
2022-07-31T18:16:17.044Z,100.00
2022-07-31T18:18:44.921Z,100.00
2022-07-31T18:21:12.896Z,100.00
2022-07-31T18:23:43.496Z,100.00
2022-07-31T18:31:32.102Z,100.00
2022-07-31T18:34:03.493Z,100.00
2022-07-31T18:36:31.584Z,100.00
2022-07-31T18:38:59.235Z,100.00
2022-07-31T18:41:27.302Z,100.00
2022-07-31T18:43:55.107Z,100.00
2022-07-31T18:46:24.195Z,100.00
2022-07-31T18:53:55.535Z,100.00
2022-07-31T18:56:24.126Z,100.00
2022-07-31T18:58:52.097Z,100.00
2022-07-31T19:01:20.457Z,100.00
2022-07-31T19:03:49.250Z,100.00
2022-07-31T19:06:16.909Z,100.00
2022-07-31T19:08:45.570Z,100.00
2022-07-31T19:16:17.628Z,100.00
2022-07-31T19:18:45.743Z,100.00
2022-07-31T19:21:25.038Z,100.00
2022-07-31T19:24:07.218Z,100.00
2022-07-31T19:26:35.029Z,100.00
2022-07-31T19:29:02.572Z,100.00
2022-07-31T19:31:31.074Z,100.00
2022-07-31T19:39:02.339Z,100.00
2022-07-31T19:41:29.974Z,100.00
2022-07-31T19:43:57.575Z,100.00
2022-07-31T19:46:25.147Z,100.00
2022-07-31T19:48:52.851Z,100.00
2022-07-31T19:51:20.469Z,100.00
2022-07-31T19:53:47.947Z,100.00
2022-07-31T20:01:14.930Z,100.00
2022-07-31T20:03:42.936Z,100.00
2022-07-31T20:06:10.806Z,100.00
2022-07-31T20:08:38.323Z,100.00
2022-07-31T20:11:06.270Z,100.00
2022-07-31T20:13:34.310Z,100.00
2022-07-31T20:16:01.980Z,100.00
2022-07-31T20:23:34.371Z,100.00
2022-07-31T20:26:02.226Z,100.00
2022-07-31T20:28:29.765Z,100.00
2022-07-31T20:30:57.606Z,100.00
2022-07-31T20:33:25.163Z,100.00
2022-07-31T20:35:52.704Z,100.00
2022-07-31T20:38:21.849Z,100.00
2022-07-31T20:45:53.221Z,100.00
2022-07-31T20:48:23.283Z,100.00
2022-07-31T20:50:50.866Z,100.00
2022-07-31T20:53:18.853Z,100.00
2022-07-31T20:55:48.586Z,100.00
2022-07-31T20:58:16.585Z,100.00
2022-07-31T21:00:45.044Z,100.00
2022-07-31T21:08:15.893Z,100.00
2022-07-31T21:10:43.528Z,100.00
2022-07-31T21:13:11.076Z,100.00
2022-07-31T21:15:42.990Z,100.00
2022-07-31T21:18:12.941Z,100.00
2022-07-31T21:20:50.059Z,100.00
2022-07-31T21:23:22.566Z,100.00
2022-07-31T21:30:55.350Z,100.00
2022-07-31T21:33:23.415Z,100.00
2022-07-31T21:35:51.656Z,100.00
2022-07-31T21:38:19.844Z,100.00
2022-07-31T21:40:47.754Z,100.00
2022-07-31T21:43:18.717Z,100.00
2022-07-31T21:45:57.232Z,100.00
2022-07-31T21:53:29.034Z,100.00
2022-07-31T21:56:00.744Z,100.00
2022-07-31T21:58:28.193Z,100.00
2022-07-31T22:00:55.749Z,100.00
2022-07-31T22:03:24.806Z,100.00
2022-07-31T22:06:10.308Z,100.00
2022-07-31T22:08:39.434Z,100.00
2022-07-31T22:13:51.452Z,100.00
2022-07-31T22:16:18.977Z,100.00
2022-07-31T22:18:47.882Z,100.00
2022-07-31T22:21:15.821Z,100.00
2022-07-31T22:23:43.579Z,100.00
2022-07-31T22:26:12.092Z,100.00
2022-07-31T22:28:40.402Z,100.00
2022-07-31T22:36:12.700Z,100.00
2022-07-31T22:38:44.395Z,100.00
2022-07-31T22:41:12.772Z,100.00
2022-07-31T22:44:10.132Z,100.00
2022-07-31T22:46:32.485Z,100.00
2022-07-31T22:49:02.279Z,100.00
2022-07-31T22:51:30.684Z,100.00
2022-07-31T22:58:29.245Z,100.00
2022-07-31T23:00:56.856Z,100.00
2022-07-31T23:03:24.310Z,100.00
2022-07-31T23:06:03.071Z,100.00
2022-07-31T23:08:39.366Z,100.00
2022-07-31T23:11:06.854Z,100.00
2022-07-31T23:13:35.070Z,100.00
2022-07-31T23:21:01.984Z,100.00
2022-07-31T23:23:35.923Z,100.00
2022-07-31T23:26:03.622Z,100.00
2022-07-31T23:28:31.448Z,100.00
2022-07-31T23:30:59.055Z,100.00
2022-07-31T23:33:26.767Z,100.00
2022-07-31T23:35:54.254Z,100.00
2022-07-31T23:43:21.197Z,100.00
2022-07-31T23:45:48.655Z,100.00
2022-07-31T23:48:16.525Z,100.00
2022-07-31T23:50:44.601Z,100.00
2022-07-31T23:53:12.163Z,100.00
2022-07-31T23:55:42.798Z,100.00
2022-07-31T23:58:11.049Z,100.00
